sensor_id;sensor_type;location;lat;lon;timestamp;temperature;humidity
10986;DHT22;5546;48.714;8.738;2023-07-13T00:00:12;20.50;94.30
10986;DHT22;5546;48.714;8.738;2023-07-13T00:02:41;20.60;94.10
10986;DHT22;5546;48.714;8.738;2023-07-13T00:05:06;20.40;94.30
10986;DHT22;5546;48.714;8.738;2023-07-13T00:07:32;20.50;94.20
10986;DHT22;5546;48.714;8.738;2023-07-13T00:09:58;20.40;93.20
10986;DHT22;5546;48.714;8.738;2023-07-13T00:12:27;20.50;92.90
10986;DHT22;5546;48.714;8.738;2023-07-13T00:29:33;20.50;92.20
10986;DHT22;5546;48.714;8.738;2023-07-13T00:34:25;20.40;92.30
10986;DHT22;5546;48.714;8.738;2023-07-13T00:36:51;20.60;92.60
10986;DHT22;5546;48.714;8.738;2023-07-13T00:39:17;20.50;92.60
10986;DHT22;5546;48.714;8.738;2023-07-13T00:41:43;20.60;92.80
10986;DHT22;5546;48.714;8.738;2023-07-13T00:44:14;20.80;92.50
10986;DHT22;5546;48.714;8.738;2023-07-13T00:46:40;20.80;92.60
10986;DHT22;5546;48.714;8.738;2023-07-13T00:49:08;20.80;92.10
10986;DHT22;5546;48.714;8.738;2023-07-13T00:51:55;20.70;91.90
10986;DHT22;5546;48.714;8.738;2023-07-13T00:54:37;20.90;92.10
10986;DHT22;5546;48.714;8.738;2023-07-13T00:57:07;20.80;91.60
10986;DHT22;5546;48.714;8.738;2023-07-13T00:59:34;20.80;91.40
10986;DHT22;5546;48.714;8.738;2023-07-13T01:06:53;20.80;91.40
10986;DHT22;5546;48.714;8.738;2023-07-13T01:09:20;20.80;91.40
10986;DHT22;5546;48.714;8.738;2023-07-13T01:11:46;20.90;91.20
10986;DHT22;5546;48.714;8.738;2023-07-13T01:14:13;20.60;91.70
10986;DHT22;5546;48.714;8.738;2023-07-13T01:16:40;20.50;92.90
10986;DHT22;5546;48.714;8.738;2023-07-13T01:19:37;20.50;94.10
10986;DHT22;5546;48.714;8.738;2023-07-13T01:22:06;20.10;95.10
10986;DHT22;5546;48.714;8.738;2023-07-13T01:24:35;19.90;95.70
10986;DHT22;5546;48.714;8.738;2023-07-13T01:31:53;19.90;92.80
10986;DHT22;5546;48.714;8.738;2023-07-13T01:34:18;19.90;92.60
10986;DHT22;5546;48.714;8.738;2023-07-13T01:51:24;19.80;92.90
10986;DHT22;5546;48.714;8.738;2023-07-13T02:01:07;19.70;92.60
10986;DHT22;5546;48.714;8.738;2023-07-13T02:03:33;19.70;92.50
10986;DHT22;5546;48.714;8.738;2023-07-13T02:05:58;19.70;92.60
10986;DHT22;5546;48.714;8.738;2023-07-13T02:08:24;19.50;92.60
10986;DHT22;5546;48.714;8.738;2023-07-13T02:10:49;19.50;92.90
10986;DHT22;5546;48.714;8.738;2023-07-13T02:15:41;19.60;92.80
10986;DHT22;5546;48.714;8.738;2023-07-13T02:18:06;19.60;92.80
10986;DHT22;5546;48.714;8.738;2023-07-13T02:20:32;19.50;92.80
10986;DHT22;5546;48.714;8.738;2023-07-13T02:22:57;19.30;93.20
10986;DHT22;5546;48.714;8.738;2023-07-13T02:25:23;19.30;93.20
10986;DHT22;5546;48.714;8.738;2023-07-13T02:35:09;19.30;92.70
10986;DHT22;5546;48.714;8.738;2023-07-13T02:42:33;19.30;92.20
10986;DHT22;5546;48.714;8.738;2023-07-13T02:44:59;19.20;92.50
10986;DHT22;5546;48.714;8.738;2023-07-13T02:47:24;19.10;93.10
10986;DHT22;5546;48.714;8.738;2023-07-13T03:02:01;18.80;95.80
10986;DHT22;5546;48.714;8.738;2023-07-13T03:04:27;18.90;95.10
10986;DHT22;5546;48.714;8.738;2023-07-13T03:06:53;18.70;94.00
10986;DHT22;5546;48.714;8.738;2023-07-13T03:09:18;18.60;94.00
10986;DHT22;5546;48.714;8.738;2023-07-13T03:14:10;18.70;93.40
10986;DHT22;5546;48.714;8.738;2023-07-13T03:19:01;18.80;93.10
10986;DHT22;5546;48.714;8.738;2023-07-13T03:23:53;18.70;93.60
10986;DHT22;5546;48.714;8.738;2023-07-13T03:26:20;18.80;93.60
10986;DHT22;5546;48.714;8.738;2023-07-13T03:28:46;18.80;93.70
10986;DHT22;5546;48.714;8.738;2023-07-13T03:31:14;18.70;93.60
10986;DHT22;5546;48.714;8.738;2023-07-13T03:33:40;18.70;93.30
10986;DHT22;5546;48.714;8.738;2023-07-13T03:36:09;18.80;93.10
10986;DHT22;5546;48.714;8.738;2023-07-13T03:41:00;18.40;96.10
10986;DHT22;5546;48.714;8.738;2023-07-13T03:45:52;18.70;95.30
10986;DHT22;5546;48.714;8.738;2023-07-13T03:50:43;18.70;93.50
10986;DHT22;5546;48.714;8.738;2023-07-13T03:53:09;18.70;93.50
10986;DHT22;5546;48.714;8.738;2023-07-13T03:58:30;18.70;93.80
10986;DHT22;5546;48.714;8.738;2023-07-13T04:03:23;18.90;93.50
10986;DHT22;5546;48.714;8.738;2023-07-13T04:05:49;18.70;94.00
10986;DHT22;5546;48.714;8.738;2023-07-13T04:08:14;18.80;94.20
10986;DHT22;5546;48.714;8.738;2023-07-13T04:10:40;18.70;94.10
10986;DHT22;5546;48.714;8.738;2023-07-13T04:13:06;18.60;94.30
10986;DHT22;5546;48.714;8.738;2023-07-13T04:15:32;18.50;94.40
10986;DHT22;5546;48.714;8.738;2023-07-13T04:17:57;18.50;94.40
10986;DHT22;5546;48.714;8.738;2023-07-13T04:20:24;18.60;94.40
10986;DHT22;5546;48.714;8.738;2023-07-13T04:22:50;18.50;94.60
10986;DHT22;5546;48.714;8.738;2023-07-13T04:37:26;18.60;94.60
10986;DHT22;5546;48.714;8.738;2023-07-13T04:42:18;18.70;94.30
10986;DHT22;5546;48.714;8.738;2023-07-13T04:44:48;18.60;94.40
10986;DHT22;5546;48.714;8.738;2023-07-13T04:52:06;18.90;94.70
10986;DHT22;5546;48.714;8.738;2023-07-13T04:54:33;19.10;95.10
10986;DHT22;5546;48.714;8.738;2023-07-13T04:59:25;18.80;95.40
10986;DHT22;5546;48.714;8.738;2023-07-13T05:01:50;19.00;95.40
10986;DHT22;5546;48.714;8.738;2023-07-13T05:04:16;19.00;95.00
10986;DHT22;5546;48.714;8.738;2023-07-13T05:06:42;19.10;95.00
10986;DHT22;5546;48.714;8.738;2023-07-13T05:16:27;19.90;92.80
10986;DHT22;5546;48.714;8.738;2023-07-13T05:26:11;19.70;92.90
10986;DHT22;5546;48.714;8.738;2023-07-13T05:28:37;19.60;93.50
10986;DHT22;5546;48.714;8.738;2023-07-13T05:31:03;19.70;93.60
10986;DHT22;5546;48.714;8.738;2023-07-13T05:33:29;19.60;94.10
10986;DHT22;5546;48.714;8.738;2023-07-13T05:38:21;20.00;93.80
10986;DHT22;5546;48.714;8.738;2023-07-13T05:43:13;20.00;93.60
10986;DHT22;5546;48.714;8.738;2023-07-13T05:45:39;20.10;93.30
10986;DHT22;5546;48.714;8.738;2023-07-13T05:48:05;20.30;93.00
10986;DHT22;5546;48.714;8.738;2023-07-13T05:50:31;20.10;92.90
10986;DHT22;5546;48.714;8.738;2023-07-13T05:57:49;19.30;94.00
10986;DHT22;5546;48.714;8.738;2023-07-13T06:02:41;19.30;94.20
10986;DHT22;5546;48.714;8.738;2023-07-13T06:05:07;19.40;93.90
10986;DHT22;5546;48.714;8.738;2023-07-13T06:12:26;19.60;93.90
10986;DHT22;5546;48.714;8.738;2023-07-13T06:14:51;20.10;92.70
10986;DHT22;5546;48.714;8.738;2023-07-13T06:17:17;19.80;92.50
10986;DHT22;5546;48.714;8.738;2023-07-13T06:19:43;20.40;91.90
10986;DHT22;5546;48.714;8.738;2023-07-13T06:22:08;20.90;91.00
10986;DHT22;5546;48.714;8.738;2023-07-13T06:24:34;20.80;91.00
10986;DHT22;5546;48.714;8.738;2023-07-13T06:26:59;21.10;90.40
10986;DHT22;5546;48.714;8.738;2023-07-13T06:29:25;21.20;88.30
10986;DHT22;5546;48.714;8.738;2023-07-13T06:34:16;21.30;87.80
10986;DHT22;5546;48.714;8.738;2023-07-13T06:39:08;21.30;86.10
10986;DHT22;5546;48.714;8.738;2023-07-13T06:46:28;21.30;85.10
10986;DHT22;5546;48.714;8.738;2023-07-13T06:48:54;22.00;84.20
10986;DHT22;5546;48.714;8.738;2023-07-13T06:51:19;22.80;81.90
10986;DHT22;5546;48.714;8.738;2023-07-13T06:53:45;23.40;77.50
10986;DHT22;5546;48.714;8.738;2023-07-13T06:56:10;23.40;78.40
10986;DHT22;5546;48.714;8.738;2023-07-13T06:58:36;23.70;77.50
10986;DHT22;5546;48.714;8.738;2023-07-13T07:01:02;24.50;75.00
10986;DHT22;5546;48.714;8.738;2023-07-13T07:03:28;25.10;71.30
10986;DHT22;5546;48.714;8.738;2023-07-13T07:05:54;25.60;66.00
10986;DHT22;5546;48.714;8.738;2023-07-13T07:08:19;25.60;67.00
10986;DHT22;5546;48.714;8.738;2023-07-13T07:10:45;26.50;67.10
10986;DHT22;5546;48.714;8.738;2023-07-13T07:13:12;27.30;64.10
10986;DHT22;5546;48.714;8.738;2023-07-13T07:15:37;27.90;61.80
10986;DHT22;5546;48.714;8.738;2023-07-13T07:18:03;28.50;59.70
10986;DHT22;5546;48.714;8.738;2023-07-13T07:20:28;29.10;56.80
10986;DHT22;5546;48.714;8.738;2023-07-13T07:22:55;29.30;56.60
10986;DHT22;5546;48.714;8.738;2023-07-13T07:25:21;29.90;54.70
10986;DHT22;5546;48.714;8.738;2023-07-13T07:27:47;29.80;53.80
10986;DHT22;5546;48.714;8.738;2023-07-13T07:30:12;30.60;53.10
10986;DHT22;5546;48.714;8.738;2023-07-13T07:32:38;31.20;51.60
10986;DHT22;5546;48.714;8.738;2023-07-13T07:35:04;31.20;50.40
10986;DHT22;5546;48.714;8.738;2023-07-13T07:37:30;30.90;50.70
10986;DHT22;5546;48.714;8.738;2023-07-13T07:39:55;31.00;48.50
10986;DHT22;5546;48.714;8.738;2023-07-13T07:42:21;32.10;47.30
10986;DHT22;5546;48.714;8.738;2023-07-13T07:44:46;32.40;47.10
10986;DHT22;5546;48.714;8.738;2023-07-13T07:47:12;32.40;46.00
10986;DHT22;5546;48.714;8.738;2023-07-13T07:49:37;32.50;45.80
10986;DHT22;5546;48.714;8.738;2023-07-13T07:52:04;32.60;45.30
10986;DHT22;5546;48.714;8.738;2023-07-13T07:54:29;32.10;45.30
10986;DHT22;5546;48.714;8.738;2023-07-13T07:56:55;32.00;46.20
10986;DHT22;5546;48.714;8.738;2023-07-13T07:59:20;31.30;46.40
10986;DHT22;5546;48.714;8.738;2023-07-13T08:01:46;32.20;45.40
10986;DHT22;5546;48.714;8.738;2023-07-13T08:04:13;31.90;45.50
10986;DHT22;5546;48.714;8.738;2023-07-13T08:06:39;32.40;45.00
10986;DHT22;5546;48.714;8.738;2023-07-13T08:09:04;33.20;43.50
10986;DHT22;5546;48.714;8.738;2023-07-13T08:11:30;33.90;42.40
10986;DHT22;5546;48.714;8.738;2023-07-13T08:13:55;34.10;41.90
10986;DHT22;5546;48.714;8.738;2023-07-13T08:16:22;34.00;40.60
10986;DHT22;5546;48.714;8.738;2023-07-13T08:18:47;33.80;40.80
10986;DHT22;5546;48.714;8.738;2023-07-13T08:21:13;34.00;40.10
10986;DHT22;5546;48.714;8.738;2023-07-13T08:23:38;34.30;40.20
10986;DHT22;5546;48.714;8.738;2023-07-13T08:26:04;35.80;38.80
10986;DHT22;5546;48.714;8.738;2023-07-13T08:28:30;35.70;36.30
10986;DHT22;5546;48.714;8.738;2023-07-13T08:31:05;36.80;36.60
10986;DHT22;5546;48.714;8.738;2023-07-13T08:33:30;35.70;36.50
10986;DHT22;5546;48.714;8.738;2023-07-13T08:35:56;34.80;36.40
10986;DHT22;5546;48.714;8.738;2023-07-13T08:38:22;34.90;36.70
10986;DHT22;5546;48.714;8.738;2023-07-13T08:40:56;35.20;37.30
10986;DHT22;5546;48.714;8.738;2023-07-13T08:43:33;35.80;35.70
10986;DHT22;5546;48.714;8.738;2023-07-13T08:49:17;37.90;34.80
10986;DHT22;5546;48.714;8.738;2023-07-13T08:51:55;37.50;33.20
10986;DHT22;5546;48.714;8.738;2023-07-13T08:54:37;37.00;33.30
10986;DHT22;5546;48.714;8.738;2023-07-13T08:57:14;35.60;33.90
10986;DHT22;5546;48.714;8.738;2023-07-13T08:59:41;33.50;36.70
10986;DHT22;5546;48.714;8.738;2023-07-13T09:02:26;32.90;37.60
10986;DHT22;5546;48.714;8.738;2023-07-13T09:05:10;33.60;36.80
10986;DHT22;5546;48.714;8.738;2023-07-13T09:10:32;34.00;36.30
10986;DHT22;5546;48.714;8.738;2023-07-13T09:15:49;33.20;35.90
10986;DHT22;5546;48.714;8.738;2023-07-13T09:18:35;32.80;36.40
10986;DHT22;5546;48.714;8.738;2023-07-13T09:21:08;32.80;37.20
10986;DHT22;5546;48.714;8.738;2023-07-13T09:23:35;32.20;36.80
10986;DHT22;5546;48.714;8.738;2023-07-13T09:28:41;32.40;36.90
10986;DHT22;5546;48.714;8.738;2023-07-13T09:31:16;32.50;36.40
10986;DHT22;5546;48.714;8.738;2023-07-13T09:33:42;33.70;34.50
10986;DHT22;5546;48.714;8.738;2023-07-13T09:36:19;34.90;34.10
10986;DHT22;5546;48.714;8.738;2023-07-13T09:38:45;35.30;33.70
10986;DHT22;5546;48.714;8.738;2023-07-13T09:41:23;36.70;33.50
10986;DHT22;5546;48.714;8.738;2023-07-13T09:44:15;36.10;32.60
10986;DHT22;5546;48.714;8.738;2023-07-13T09:46:53;36.10;33.80
10986;DHT22;5546;48.714;8.738;2023-07-13T09:49:22;35.40;33.20
10986;DHT22;5546;48.714;8.738;2023-07-13T09:51:58;34.00;35.50
10986;DHT22;5546;48.714;8.738;2023-07-13T09:54:25;33.70;36.10
10986;DHT22;5546;48.714;8.738;2023-07-13T09:56:58;33.80;35.80
10986;DHT22;5546;48.714;8.738;2023-07-13T09:59:40;34.90;34.90
10986;DHT22;5546;48.714;8.738;2023-07-13T10:02:25;36.00;33.90
10986;DHT22;5546;48.714;8.738;2023-07-13T10:04:56;36.20;32.90
10986;DHT22;5546;48.714;8.738;2023-07-13T10:07:23;35.40;33.40
10986;DHT22;5546;48.714;8.738;2023-07-13T10:09:53;33.70;35.40
10986;DHT22;5546;48.714;8.738;2023-07-13T10:12:20;33.30;35.80
10986;DHT22;5546;48.714;8.738;2023-07-13T10:14:46;31.90;36.80
10986;DHT22;5546;48.714;8.738;2023-07-13T10:17:14;31.10;38.20
10986;DHT22;5546;48.714;8.738;2023-07-13T10:19:42;30.70;38.40
10986;DHT22;5546;48.714;8.738;2023-07-13T10:22:26;31.00;38.50
10986;DHT22;5546;48.714;8.738;2023-07-13T10:24:53;31.00;38.40
10986;DHT22;5546;48.714;8.738;2023-07-13T10:27:26;31.80;38.00
10986;DHT22;5546;48.714;8.738;2023-07-13T10:30:12;32.90;36.30
10986;DHT22;5546;48.714;8.738;2023-07-13T10:32:39;33.70;35.50
10986;DHT22;5546;48.714;8.738;2023-07-13T10:35:08;34.20;35.90
10986;DHT22;5546;48.714;8.738;2023-07-13T10:38:04;34.00;35.30
10986;DHT22;5546;48.714;8.738;2023-07-13T10:40:39;33.70;35.40
10986;DHT22;5546;48.714;8.738;2023-07-13T10:43:15;31.70;38.00
10986;DHT22;5546;48.714;8.738;2023-07-13T10:45:43;31.50;39.10
10986;DHT22;5546;48.714;8.738;2023-07-13T10:48:13;32.20;37.50
10986;DHT22;5546;48.714;8.738;2023-07-13T10:50:43;33.50;35.80
10986;DHT22;5546;48.714;8.738;2023-07-13T10:53:36;35.40;34.90
10986;DHT22;5546;48.714;8.738;2023-07-13T10:56:28;38.00;31.60
10986;DHT22;5546;48.714;8.738;2023-07-13T10:59:06;38.20;30.70
10986;DHT22;5546;48.714;8.738;2023-07-13T11:04:22;36.00;32.00
10986;DHT22;5546;48.714;8.738;2023-07-13T11:06:52;35.30;33.50
10986;DHT22;5546;48.714;8.738;2023-07-13T11:09:40;35.40;33.60
10986;DHT22;5546;48.714;8.738;2023-07-13T11:12:48;34.50;34.30
10986;DHT22;5546;48.714;8.738;2023-07-13T11:15:26;34.10;34.70
10986;DHT22;5546;48.714;8.738;2023-07-13T11:17:54;33.90;35.30
10986;DHT22;5546;48.714;8.738;2023-07-13T11:20:37;33.30;36.50
10986;DHT22;5546;48.714;8.738;2023-07-13T11:25:39;33.90;35.90
10986;DHT22;5546;48.714;8.738;2023-07-13T11:30:41;36.50;32.10
10986;DHT22;5546;48.714;8.738;2023-07-13T11:36:15;36.90;30.40
10986;DHT22;5546;48.714;8.738;2023-07-13T11:38:42;36.40;31.50
10986;DHT22;5546;48.714;8.738;2023-07-13T11:41:33;34.80;34.20
10986;DHT22;5546;48.714;8.738;2023-07-13T11:44:27;33.90;36.00
10986;DHT22;5546;48.714;8.738;2023-07-13T11:46:54;35.60;34.30
10986;DHT22;5546;48.714;8.738;2023-07-13T11:49:21;34.80;33.40
10986;DHT22;5546;48.714;8.738;2023-07-13T11:51:47;34.10;34.40
10986;DHT22;5546;48.714;8.738;2023-07-13T11:57:43;33.50;35.30
10986;DHT22;5546;48.714;8.738;2023-07-13T12:00:04;35.20;32.70
10986;DHT22;5546;48.714;8.738;2023-07-13T12:02:45;37.30;30.20
10986;DHT22;5546;48.714;8.738;2023-07-13T12:05:13;35.30;30.70
10986;DHT22;5546;48.714;8.738;2023-07-13T12:07:39;34.40;31.60
10986;DHT22;5546;48.714;8.738;2023-07-13T12:12:36;36.30;30.90
10986;DHT22;5546;48.714;8.738;2023-07-13T12:15:06;37.30;30.00
10986;DHT22;5546;48.714;8.738;2023-07-13T12:17:34;37.10;29.80
10986;DHT22;5546;48.714;8.738;2023-07-13T12:20:25;37.80;29.50
10986;DHT22;5546;48.714;8.738;2023-07-13T12:22:52;37.90;29.20
10986;DHT22;5546;48.714;8.738;2023-07-13T12:25:18;38.30;29.40
10986;DHT22;5546;48.714;8.738;2023-07-13T12:27:51;38.50;28.40
10986;DHT22;5546;48.714;8.738;2023-07-13T12:30:32;39.00;28.10
10986;DHT22;5546;48.714;8.738;2023-07-13T12:33:02;36.70;28.60
10986;DHT22;5546;48.714;8.738;2023-07-13T12:35:40;35.20;30.80
10986;DHT22;5546;48.714;8.738;2023-07-13T12:38:10;35.00;31.60
10986;DHT22;5546;48.714;8.738;2023-07-13T12:40:37;35.00;31.90
10986;DHT22;5546;48.714;8.738;2023-07-13T12:43:03;35.00;31.30
10986;DHT22;5546;48.714;8.738;2023-07-13T12:45:30;34.70;31.30
10986;DHT22;5546;48.714;8.738;2023-07-13T12:48:04;34.50;32.20
10986;DHT22;5546;48.714;8.738;2023-07-13T12:50:37;35.30;31.80
10986;DHT22;5546;48.714;8.738;2023-07-13T12:53:05;35.80;31.10
10986;DHT22;5546;48.714;8.738;2023-07-13T12:55:44;35.90;31.40
10986;DHT22;5546;48.714;8.738;2023-07-13T12:58:27;36.30;31.10
10986;DHT22;5546;48.714;8.738;2023-07-13T13:00:55;37.20;30.40
10986;DHT22;5546;48.714;8.738;2023-07-13T13:03:33;37.70;29.90
10986;DHT22;5546;48.714;8.738;2023-07-13T13:06:00;36.80;31.00
10986;DHT22;5546;48.714;8.738;2023-07-13T13:08:29;35.00;32.00
10986;DHT22;5546;48.714;8.738;2023-07-13T13:10:55;34.70;33.30
10986;DHT22;5546;48.714;8.738;2023-07-13T13:13:20;35.90;32.10
10986;DHT22;5546;48.714;8.738;2023-07-13T13:15:46;37.40;29.70
10986;DHT22;5546;48.714;8.738;2023-07-13T13:18:19;38.50;29.10
10986;DHT22;5546;48.714;8.738;2023-07-13T13:20:46;38.80;28.40
10986;DHT22;5546;48.714;8.738;2023-07-13T13:23:19;38.30;28.80
10986;DHT22;5546;48.714;8.738;2023-07-13T13:25:47;38.60;27.70
10986;DHT22;5546;48.714;8.738;2023-07-13T13:28:15;38.20;28.00
10986;DHT22;5546;48.714;8.738;2023-07-13T13:30:42;38.70;27.90
10986;DHT22;5546;48.714;8.738;2023-07-13T13:33:11;39.00;28.00
10986;DHT22;5546;48.714;8.738;2023-07-13T13:35:37;36.80;28.80
10986;DHT22;5546;48.714;8.738;2023-07-13T13:40:37;35.00;30.50
10986;DHT22;5546;48.714;8.738;2023-07-13T13:43:10;34.40;31.80
10986;DHT22;5546;48.714;8.738;2023-07-13T13:45:39;33.80;33.40
10986;DHT22;5546;48.714;8.738;2023-07-13T13:48:05;34.00;34.10
10986;DHT22;5546;48.714;8.738;2023-07-13T13:50:30;34.70;32.50
10986;DHT22;5546;48.714;8.738;2023-07-13T13:52:56;34.00;33.20
10986;DHT22;5546;48.714;8.738;2023-07-13T13:55:22;34.30;33.20
10986;DHT22;5546;48.714;8.738;2023-07-13T13:57:49;35.00;32.70
10986;DHT22;5546;48.714;8.738;2023-07-13T14:00:16;36.80;31.60
10986;DHT22;5546;48.714;8.738;2023-07-13T14:02:44;36.50;31.00
10986;DHT22;5546;48.714;8.738;2023-07-13T14:05:18;36.40;32.20
10986;DHT22;5546;48.714;8.738;2023-07-13T14:07:45;34.30;33.80
10986;DHT22;5546;48.714;8.738;2023-07-13T14:10:16;32.90;35.90
10986;DHT22;5546;48.714;8.738;2023-07-13T14:12:44;33.10;35.70
10986;DHT22;5546;48.714;8.738;2023-07-13T14:15:24;32.10;36.60
10986;DHT22;5546;48.714;8.738;2023-07-13T14:17:50;31.80;37.60
10986;DHT22;5546;48.714;8.738;2023-07-13T14:20:17;32.80;36.80
10986;DHT22;5546;48.714;8.738;2023-07-13T14:22:43;33.90;35.80
10986;DHT22;5546;48.714;8.738;2023-07-13T14:25:12;34.80;34.20
10986;DHT22;5546;48.714;8.738;2023-07-13T14:27:38;35.50;33.20
10986;DHT22;5546;48.714;8.738;2023-07-13T14:30:15;35.10;33.80
10986;DHT22;5546;48.714;8.738;2023-07-13T14:32:41;33.30;35.10
10986;DHT22;5546;48.714;8.738;2023-07-13T14:35:12;32.30;35.70
10986;DHT22;5546;48.714;8.738;2023-07-13T14:37:39;32.10;36.40
10986;DHT22;5546;48.714;8.738;2023-07-13T14:40:26;32.00;37.00
10986;DHT22;5546;48.714;8.738;2023-07-13T14:42:52;31.50;37.30
10986;DHT22;5546;48.714;8.738;2023-07-13T14:45:19;31.60;37.60
10986;DHT22;5546;48.714;8.738;2023-07-13T14:47:46;32.10;36.90
10986;DHT22;5546;48.714;8.738;2023-07-13T14:50:16;32.40;36.30
10986;DHT22;5546;48.714;8.738;2023-07-13T14:52:43;33.00;35.60
10986;DHT22;5546;48.714;8.738;2023-07-13T14:55:13;32.80;36.00
10986;DHT22;5546;48.714;8.738;2023-07-13T14:57:39;32.30;36.20
10986;DHT22;5546;48.714;8.738;2023-07-13T15:02:39;33.00;35.60
10986;DHT22;5546;48.714;8.738;2023-07-13T15:05:16;32.10;36.50
10986;DHT22;5546;48.714;8.738;2023-07-13T15:07:42;30.80;37.90
10986;DHT22;5546;48.714;8.738;2023-07-13T15:10:32;30.70;38.40
10986;DHT22;5546;48.714;8.738;2023-07-13T15:13:00;30.60;39.00
10986;DHT22;5546;48.714;8.738;2023-07-13T15:15:28;30.50;38.90
10986;DHT22;5546;48.714;8.738;2023-07-13T15:17:54;30.60;39.20
10986;DHT22;5546;48.714;8.738;2023-07-13T15:20:24;30.60;39.10
10986;DHT22;5546;48.714;8.738;2023-07-13T15:22:51;30.60;38.80
10986;DHT22;5546;48.714;8.738;2023-07-13T15:25:22;29.80;38.90
10986;DHT22;5546;48.714;8.738;2023-07-13T15:27:49;29.90;38.80
10986;DHT22;5546;48.714;8.738;2023-07-13T15:30:15;29.60;39.00
10986;DHT22;5546;48.714;8.738;2023-07-13T15:32:44;29.10;39.10
10986;DHT22;5546;48.714;8.738;2023-07-13T15:35:18;28.50;40.30
10986;DHT22;5546;48.714;8.738;2023-07-13T15:37:45;28.50;40.70
10986;DHT22;5546;48.714;8.738;2023-07-13T15:40:12;28.90;40.10
10986;DHT22;5546;48.714;8.738;2023-07-13T15:42:39;28.90;40.00
10986;DHT22;5546;48.714;8.738;2023-07-13T15:45:20;28.40;40.60
10986;DHT22;5546;48.714;8.738;2023-07-13T15:47:47;28.30;40.60
10986;DHT22;5546;48.714;8.738;2023-07-13T15:50:15;28.50;40.40
10986;DHT22;5546;48.714;8.738;2023-07-13T15:52:41;28.80;40.70
10986;DHT22;5546;48.714;8.738;2023-07-13T15:55:11;28.50;40.30
10986;DHT22;5546;48.714;8.738;2023-07-13T15:57:37;28.20;41.10
10986;DHT22;5546;48.714;8.738;2023-07-13T16:00:03;28.10;40.60
10986;DHT22;5546;48.714;8.738;2023-07-13T16:02:31;28.00;41.10
10986;DHT22;5546;48.714;8.738;2023-07-13T16:04:56;28.20;41.20
10986;DHT22;5546;48.714;8.738;2023-07-13T16:07:22;28.40;41.30
10986;DHT22;5546;48.714;8.738;2023-07-13T16:09:48;27.70;42.50
10986;DHT22;5546;48.714;8.738;2023-07-13T16:12:15;27.50;42.30
10986;DHT22;5546;48.714;8.738;2023-07-13T16:14:42;28.00;42.40
10986;DHT22;5546;48.714;8.738;2023-07-13T16:17:11;28.10;42.10
10986;DHT22;5546;48.714;8.738;2023-07-13T16:19:37;28.10;41.90
10986;DHT22;5546;48.714;8.738;2023-07-13T16:22:04;28.20;43.20
10986;DHT22;5546;48.714;8.738;2023-07-13T16:24:31;28.40;41.60
10986;DHT22;5546;48.714;8.738;2023-07-13T16:26:57;28.20;41.50
10986;DHT22;5546;48.714;8.738;2023-07-13T16:29:29;28.20;41.90
10986;DHT22;5546;48.714;8.738;2023-07-13T16:32:04;28.10;43.90
10986;DHT22;5546;48.714;8.738;2023-07-13T16:34:34;28.00;42.10
10986;DHT22;5546;48.714;8.738;2023-07-13T16:37:01;27.50;43.70
10986;DHT22;5546;48.714;8.738;2023-07-13T16:39:28;27.40;43.10
10986;DHT22;5546;48.714;8.738;2023-07-13T16:41:57;27.20;43.20
10986;DHT22;5546;48.714;8.738;2023-07-13T16:44:32;27.50;43.40
10986;DHT22;5546;48.714;8.738;2023-07-13T16:46:58;27.70;42.70
10986;DHT22;5546;48.714;8.738;2023-07-13T16:49:29;27.90;43.40
10986;DHT22;5546;48.714;8.738;2023-07-13T16:51:56;28.00;42.60
10986;DHT22;5546;48.714;8.738;2023-07-13T16:54:34;27.50;44.30
10986;DHT22;5546;48.714;8.738;2023-07-13T16:57:03;27.60;45.00
10986;DHT22;5546;48.714;8.738;2023-07-13T16:59:33;27.50;46.90
10986;DHT22;5546;48.714;8.738;2023-07-13T17:02:01;27.10;44.30
10986;DHT22;5546;48.714;8.738;2023-07-13T17:04:30;27.10;44.20
10986;DHT22;5546;48.714;8.738;2023-07-13T17:06:57;27.20;44.30
10986;DHT22;5546;48.714;8.738;2023-07-13T17:09:23;26.90;44.00
10986;DHT22;5546;48.714;8.738;2023-07-13T17:11:50;26.90;44.60
10986;DHT22;5546;48.714;8.738;2023-07-13T17:14:19;26.80;46.20
10986;DHT22;5546;48.714;8.738;2023-07-13T17:16:47;27.10;46.10
10986;DHT22;5546;48.714;8.738;2023-07-13T17:19:15;27.30;46.30
10986;DHT22;5546;48.714;8.738;2023-07-13T17:21:43;27.20;46.70
10986;DHT22;5546;48.714;8.738;2023-07-13T17:24:18;27.00;45.70
10986;DHT22;5546;48.714;8.738;2023-07-13T17:26:48;26.70;46.80
10986;DHT22;5546;48.714;8.738;2023-07-13T17:29:16;26.20;48.10
10986;DHT22;5546;48.714;8.738;2023-07-13T17:31:42;26.30;48.70
10986;DHT22;5546;48.714;8.738;2023-07-13T17:34:11;26.60;48.70
10986;DHT22;5546;48.714;8.738;2023-07-13T17:36:37;26.40;48.30
10986;DHT22;5546;48.714;8.738;2023-07-13T17:39:14;26.40;50.30
10986;DHT22;5546;48.714;8.738;2023-07-13T17:41:40;26.80;50.40
10986;DHT22;5546;48.714;8.738;2023-07-13T17:44:14;26.60;50.80
10986;DHT22;5546;48.714;8.738;2023-07-13T17:46:44;26.20;52.60
10986;DHT22;5546;48.714;8.738;2023-07-13T17:49:22;26.20;52.60
10986;DHT22;5546;48.714;8.738;2023-07-13T17:54:22;26.00;53.90
10986;DHT22;5546;48.714;8.738;2023-07-13T17:59:16;25.40;54.40
10986;DHT22;5546;48.714;8.738;2023-07-13T18:04:11;25.40;54.90
10986;DHT22;5546;48.714;8.738;2023-07-13T18:06:40;25.50;53.50
10986;DHT22;5546;48.714;8.738;2023-07-13T18:09:23;25.50;54.20
10986;DHT22;5546;48.714;8.738;2023-07-13T18:14:17;25.20;54.80
10986;DHT22;5546;48.714;8.738;2023-07-13T18:16:51;25.30;54.60
10986;DHT22;5546;48.714;8.738;2023-07-13T18:19:34;25.30;53.90
10986;DHT22;5546;48.714;8.738;2023-07-13T18:22:09;25.20;54.90
10986;DHT22;5546;48.714;8.738;2023-07-13T18:24:35;25.10;54.90
10986;DHT22;5546;48.714;8.738;2023-07-13T18:27:01;25.20;54.60
10986;DHT22;5546;48.714;8.738;2023-07-13T18:29:26;24.90;55.20
10986;DHT22;5546;48.714;8.738;2023-07-13T18:36:44;24.60;55.50
10986;DHT22;5546;48.714;8.738;2023-07-13T18:39:14;24.40;56.20
10986;DHT22;5546;48.714;8.738;2023-07-13T18:44:06;24.50;57.60
10986;DHT22;5546;48.714;8.738;2023-07-13T18:49:01;24.10;57.90
10986;DHT22;5546;48.714;8.738;2023-07-13T18:58:45;24.00;60.20
10986;DHT22;5546;48.714;8.738;2023-07-13T19:01:32;23.40;60.50
10986;DHT22;5546;48.714;8.738;2023-07-13T19:04:29;23.30;60.50
10986;DHT22;5546;48.714;8.738;2023-07-13T19:14:20;23.90;60.20
10986;DHT22;5546;48.714;8.738;2023-07-13T19:19:15;23.50;62.70
10986;DHT22;5546;48.714;8.738;2023-07-13T19:21:42;23.70;62.60
10986;DHT22;5546;48.714;8.738;2023-07-13T19:24:13;23.80;60.90
10986;DHT22;5546;48.714;8.738;2023-07-13T19:26:39;23.80;60.10
10986;DHT22;5546;48.714;8.738;2023-07-13T19:31:35;23.60;62.20
10986;DHT22;5546;48.714;8.738;2023-07-13T19:34:16;23.40;61.80
10986;DHT22;5546;48.714;8.738;2023-07-13T19:36:42;23.10;62.60
10986;DHT22;5546;48.714;8.738;2023-07-13T19:39:21;22.90;63.10
10986;DHT22;5546;48.714;8.738;2023-07-13T19:41:48;22.90;63.80
10986;DHT22;5546;48.714;8.738;2023-07-13T19:44:19;22.90;63.60
10986;DHT22;5546;48.714;8.738;2023-07-13T19:51:41;22.60;63.20
10986;DHT22;5546;48.714;8.738;2023-07-13T19:54:13;22.40;64.10